Terminal Aerodrome Forecast
Issued by NWS

Home | Current Version | Previous Version | Text Only | Print | Product List | Glossary On
Versions: 1 2 3 4 5 6 7 8 9 10 11 12 13 14 15 16
000
FTUS46 KSEW 280424 AAA
TAFOLM
TAF AMD
KOLM 280424Z 2804/2824 26008KT P6SM SCT030
     FM281000 00000KT P6SM BKN020
      TEMPO 2811/2815 4SM BR SCT005 SCT020
     FM281700 VRB03KT P6SM BKN030
     FM282000 23005KT P6SM BKN040
     FM282200 28006KT P6SM SCT045=

USA.gov is the U.S. government's official web portal to all federal, state and local government web resources and services.